sensor_id;sensor_type;location;lat;lon;timestamp;P1;durP1;ratioP1;P2;durP2;ratioP2
11037;SDS011;5572;49.540;11.932;2022-11-20T00:01:37;26.37;;;15.50;;
11037;SDS011;5572;49.540;11.932;2022-11-20T00:04:04;24.60;;;13.37;;
11037;SDS011;5572;49.540;11.932;2022-11-20T00:06:31;33.67;;;17.90;;
11037;SDS011;5572;49.540;11.932;2022-11-20T00:08:59;20.93;;;12.97;;
11037;SDS011;5572;49.540;11.932;2022-11-20T00:11:27;29.77;;;16.73;;
11037;SDS011;5572;49.540;11.932;2022-11-20T00:13:56;31.30;;;15.03;;
11037;SDS011;5572;49.540;11.932;2022-11-20T00:16:31;31.80;;;16.20;;
11037;SDS011;5572;49.540;11.932;2022-11-20T00:19:00;28.90;;;16.20;;
11037;SDS011;5572;49.540;11.932;2022-11-20T00:21:27;28.53;;;15.93;;
11037;SDS011;5572;49.540;11.932;2022-11-20T00:24:07;28.13;;;14.37;;
11037;SDS011;5572;49.540;11.932;2022-11-20T00:26:35;25.80;;;13.33;;
11037;SDS011;5572;49.540;11.932;2022-11-20T00:29:05;24.63;;;13.97;;
11037;SDS011;5572;49.540;11.932;2022-11-20T00:31:39;17.93;;;11.50;;
11037;SDS011;5572;49.540;11.932;2022-11-20T00:34:08;24.77;;;13.20;;
11037;SDS011;5572;49.540;11.932;2022-11-20T00:36:35;27.40;;;15.73;;
11037;SDS011;5572;49.540;11.932;2022-11-20T00:39:02;26.13;;;14.97;;
11037;SDS011;5572;49.540;11.932;2022-11-20T00:41:29;34.37;;;15.53;;
11037;SDS011;5572;49.540;11.932;2022-11-20T00:43:56;28.13;;;13.47;;
11037;SDS011;5572;49.540;11.932;2022-11-20T00:46:24;30.70;;;14.83;;
11037;SDS011;5572;49.540;11.932;2022-11-20T00:48:51;25.37;;;13.33;;
11037;SDS011;5572;49.540;11.932;2022-11-20T00:51:21;25.40;;;15.20;;
11037;SDS011;5572;49.540;11.932;2022-11-20T00:53:49;26.00;;;14.53;;
11037;SDS011;5572;49.540;11.932;2022-11-20T00:56:16;32.27;;;17.30;;
11037;SDS011;5572;49.540;11.932;2022-11-20T00:58:47;24.40;;;13.97;;
11037;SDS011;5572;49.540;11.932;2022-11-20T01:01:16;33.30;;;16.13;;
11037;SDS011;5572;49.540;11.932;2022-11-20T01:03:44;26.47;;;14.43;;
11037;SDS011;5572;49.540;11.932;2022-11-20T01:06:13;26.87;;;14.57;;
11037;SDS011;5572;49.540;11.932;2022-11-20T01:08:48;33.13;;;16.33;;
11037;SDS011;5572;49.540;11.932;2022-11-20T01:18:36;25.40;;;13.97;;
11037;SDS011;5572;49.540;11.932;2022-11-20T01:21:05;24.17;;;13.43;;
11037;SDS011;5572;49.540;11.932;2022-11-20T01:23:34;24.63;;;13.60;;
11037;SDS011;5572;49.540;11.932;2022-11-20T01:26:09;25.93;;;15.50;;
11037;SDS011;5572;49.540;11.932;2022-11-20T01:36:15;27.33;;;14.17;;
11037;SDS011;5572;49.540;11.932;2022-11-20T01:38:43;21.03;;;12.57;;
11037;SDS011;5572;49.540;11.932;2022-11-20T01:41:12;23.70;;;14.63;;
11037;SDS011;5572;49.540;11.932;2022-11-20T01:44:01;26.37;;;14.87;;
11037;SDS011;5572;49.540;11.932;2022-11-20T01:46:28;24.70;;;14.23;;
11037;SDS011;5572;49.540;11.932;2022-11-20T01:48:56;25.73;;;15.07;;
11037;SDS011;5572;49.540;11.932;2022-11-20T01:51:28;29.10;;;15.53;;
11037;SDS011;5572;49.540;11.932;2022-11-20T01:53:58;30.37;;;16.07;;
11037;SDS011;5572;49.540;11.932;2022-11-20T01:56:31;32.23;;;15.93;;
11037;SDS011;5572;49.540;11.932;2022-11-20T01:59:03;32.37;;;17.33;;
11037;SDS011;5572;49.540;11.932;2022-11-20T02:01:31;27.13;;;15.57;;
11037;SDS011;5572;49.540;11.932;2022-11-20T02:03:58;33.50;;;16.80;;
11037;SDS011;5572;49.540;11.932;2022-11-20T02:06:27;29.23;;;15.53;;
11037;SDS011;5572;49.540;11.932;2022-11-20T02:08:56;36.90;;;16.10;;
11037;SDS011;5572;49.540;11.932;2022-11-20T02:11:23;31.20;;;16.60;;
11037;SDS011;5572;49.540;11.932;2022-11-20T02:13:51;34.93;;;18.07;;
11037;SDS011;5572;49.540;11.932;2022-11-20T02:16:20;27.47;;;14.50;;
11037;SDS011;5572;49.540;11.932;2022-11-20T02:18:49;30.40;;;15.47;;
11037;SDS011;5572;49.540;11.932;2022-11-20T02:21:28;25.20;;;14.23;;
11037;SDS011;5572;49.540;11.932;2022-11-20T02:24:11;28.23;;;14.00;;
11037;SDS011;5572;49.540;11.932;2022-11-20T02:26:41;34.43;;;15.97;;
11037;SDS011;5572;49.540;11.932;2022-11-20T02:29:12;23.83;;;14.37;;
11037;SDS011;5572;49.540;11.932;2022-11-20T02:31:41;35.80;;;17.50;;
11037;SDS011;5572;49.540;11.932;2022-11-20T02:34:09;32.47;;;16.47;;
11037;SDS011;5572;49.540;11.932;2022-11-20T02:36:36;28.17;;;13.10;;
11037;SDS011;5572;49.540;11.932;2022-11-20T02:39:06;28.40;;;15.33;;
11037;SDS011;5572;49.540;11.932;2022-11-20T02:41:37;30.83;;;16.07;;
11037;SDS011;5572;49.540;11.932;2022-11-20T02:44:04;28.63;;;16.23;;
11037;SDS011;5572;49.540;11.932;2022-11-20T02:46:31;35.20;;;18.17;;
11037;SDS011;5572;49.540;11.932;2022-11-20T02:48:58;23.40;;;13.70;;
11037;SDS011;5572;49.540;11.932;2022-11-20T02:51:26;28.40;;;15.00;;
11037;SDS011;5572;49.540;11.932;2022-11-20T02:53:53;26.90;;;16.03;;
11037;SDS011;5572;49.540;11.932;2022-11-20T02:56:19;26.20;;;14.50;;
11037;SDS011;5572;49.540;11.932;2022-11-20T02:58:47;24.03;;;11.40;;
11037;SDS011;5572;49.540;11.932;2022-11-20T03:01:14;34.43;;;17.43;;
11037;SDS011;5572;49.540;11.932;2022-11-20T03:03:41;21.07;;;13.23;;
11037;SDS011;5572;49.540;11.932;2022-11-20T03:06:07;34.87;;;17.30;;
11037;SDS011;5572;49.540;11.932;2022-11-20T03:08:34;28.60;;;16.00;;
11037;SDS011;5572;49.540;11.932;2022-11-20T03:11:05;26.53;;;13.50;;
11037;SDS011;5572;49.540;11.932;2022-11-20T03:13:33;31.37;;;17.23;;
11037;SDS011;5572;49.540;11.932;2022-11-20T03:16:06;25.93;;;14.00;;
11037;SDS011;5572;49.540;11.932;2022-11-20T03:18:34;27.10;;;15.03;;
11037;SDS011;5572;49.540;11.932;2022-11-20T03:21:00;23.33;;;13.53;;
11037;SDS011;5572;49.540;11.932;2022-11-20T03:23:29;27.57;;;16.33;;
11037;SDS011;5572;49.540;11.932;2022-11-20T03:26:06;26.47;;;15.97;;
11037;SDS011;5572;49.540;11.932;2022-11-20T03:28:33;28.83;;;17.10;;
11037;SDS011;5572;49.540;11.932;2022-11-20T03:31:05;30.53;;;16.87;;
11037;SDS011;5572;49.540;11.932;2022-11-20T03:33:33;30.83;;;16.03;;
11037;SDS011;5572;49.540;11.932;2022-11-20T03:36:00;28.70;;;15.33;;
11037;SDS011;5572;49.540;11.932;2022-11-20T03:38:28;29.33;;;15.77;;
11037;SDS011;5572;49.540;11.932;2022-11-20T03:40:57;31.60;;;15.93;;
11037;SDS011;5572;49.540;11.932;2022-11-20T03:43:24;33.67;;;15.23;;
11037;SDS011;5572;49.540;11.932;2022-11-20T03:45:51;28.43;;;13.70;;
11037;SDS011;5572;49.540;11.932;2022-11-20T03:48:19;37.10;;;17.43;;
11037;SDS011;5572;49.540;11.932;2022-11-20T03:50:46;28.83;;;14.80;;
11037;SDS011;5572;49.540;11.932;2022-11-20T03:53:13;27.97;;;14.43;;
11037;SDS011;5572;49.540;11.932;2022-11-20T03:55:39;26.00;;;14.40;;
11037;SDS011;5572;49.540;11.932;2022-11-20T03:58:06;29.63;;;16.33;;
11037;SDS011;5572;49.540;11.932;2022-11-20T04:00:33;34.30;;;16.30;;
11037;SDS011;5572;49.540;11.932;2022-11-20T04:02:59;31.37;;;16.00;;
11037;SDS011;5572;49.540;11.932;2022-11-20T04:05:30;38.40;;;17.60;;
11037;SDS011;5572;49.540;11.932;2022-11-20T04:07:57;24.50;;;13.23;;
11037;SDS011;5572;49.540;11.932;2022-11-20T04:10:23;29.63;;;14.47;;
11037;SDS011;5572;49.540;11.932;2022-11-20T04:12:50;29.83;;;16.70;;
11037;SDS011;5572;49.540;11.932;2022-11-20T04:15:16;34.70;;;18.00;;
11037;SDS011;5572;49.540;11.932;2022-11-20T04:17:43;31.83;;;16.60;;
11037;SDS011;5572;49.540;11.932;2022-11-20T04:20:10;29.33;;;15.33;;
11037;SDS011;5572;49.540;11.932;2022-11-20T04:22:38;32.57;;;17.40;;
11037;SDS011;5572;49.540;11.932;2022-11-20T04:25:05;28.73;;;16.20;;
11037;SDS011;5572;49.540;11.932;2022-11-20T04:27:32;24.80;;;13.50;;
11037;SDS011;5572;49.540;11.932;2022-11-20T04:29:59;25.53;;;14.30;;
11037;SDS011;5572;49.540;11.932;2022-11-20T04:32:25;32.13;;;15.93;;
11037;SDS011;5572;49.540;11.932;2022-11-20T04:34:52;23.47;;;12.30;;
11037;SDS011;5572;49.540;11.932;2022-11-20T04:37:19;27.63;;;14.37;;
11037;SDS011;5572;49.540;11.932;2022-11-20T04:39:46;31.77;;;17.07;;
11037;SDS011;5572;49.540;11.932;2022-11-20T04:42:13;26.87;;;16.10;;
11037;SDS011;5572;49.540;11.932;2022-11-20T04:44:55;32.10;;;16.17;;
11037;SDS011;5572;49.540;11.932;2022-11-20T04:47:22;40.37;;;20.23;;
11037;SDS011;5572;49.540;11.932;2022-11-20T04:49:49;24.90;;;14.07;;
11037;SDS011;5572;49.540;11.932;2022-11-20T04:52:16;28.67;;;15.53;;
11037;SDS011;5572;49.540;11.932;2022-11-20T04:54:42;28.50;;;16.07;;
11037;SDS011;5572;49.540;11.932;2022-11-20T04:57:11;32.30;;;17.33;;
11037;SDS011;5572;49.540;11.932;2022-11-20T04:59:39;33.97;;;18.07;;
11037;SDS011;5572;49.540;11.932;2022-11-20T05:02:05;33.13;;;17.97;;
11037;SDS011;5572;49.540;11.932;2022-11-20T05:04:32;31.03;;;16.70;;
11037;SDS011;5572;49.540;11.932;2022-11-20T05:06:59;31.50;;;16.27;;
11037;SDS011;5572;49.540;11.932;2022-11-20T05:09:25;28.57;;;15.97;;
11037;SDS011;5572;49.540;11.932;2022-11-20T05:11:52;34.40;;;18.53;;
11037;SDS011;5572;49.540;11.932;2022-11-20T05:14:20;34.63;;;17.50;;
11037;SDS011;5572;49.540;11.932;2022-11-20T05:16:46;26.30;;;14.50;;
11037;SDS011;5572;49.540;11.932;2022-11-20T05:19:13;35.27;;;17.80;;
11037;SDS011;5572;49.540;11.932;2022-11-20T05:21:40;30.40;;;15.53;;
11037;SDS011;5572;49.540;11.932;2022-11-20T05:24:06;38.57;;;17.87;;
11037;SDS011;5572;49.540;11.932;2022-11-20T05:26:33;37.43;;;17.10;;
11037;SDS011;5572;49.540;11.932;2022-11-20T05:29:00;29.40;;;15.57;;
11037;SDS011;5572;49.540;11.932;2022-11-20T05:31:28;31.47;;;16.80;;
11037;SDS011;5572;49.540;11.932;2022-11-20T05:33:55;33.67;;;17.43;;
11037;SDS011;5572;49.540;11.932;2022-11-20T05:36:23;36.47;;;19.53;;
11037;SDS011;5572;49.540;11.932;2022-11-20T05:38:49;31.07;;;13.63;;
11037;SDS011;5572;49.540;11.932;2022-11-20T05:41:17;27.53;;;14.13;;
11037;SDS011;5572;49.540;11.932;2022-11-20T05:43:46;23.60;;;12.77;;
11037;SDS011;5572;49.540;11.932;2022-11-20T05:46:14;22.97;;;12.40;;
11037;SDS011;5572;49.540;11.932;2022-11-20T05:48:44;26.97;;;13.90;;
11037;SDS011;5572;49.540;11.932;2022-11-20T05:51:12;36.53;;;17.10;;
11037;SDS011;5572;49.540;11.932;2022-11-20T05:53:41;30.57;;;16.40;;
11037;SDS011;5572;49.540;11.932;2022-11-20T05:56:09;29.50;;;16.07;;
11037;SDS011;5572;49.540;11.932;2022-11-20T05:58:37;31.20;;;17.47;;
11037;SDS011;5572;49.540;11.932;2022-11-20T06:01:05;31.30;;;16.90;;
11037;SDS011;5572;49.540;11.932;2022-11-20T06:03:33;28.97;;;16.77;;
11037;SDS011;5572;49.540;11.932;2022-11-20T06:06:01;43.33;;;18.57;;
11037;SDS011;5572;49.540;11.932;2022-11-20T06:08:28;33.53;;;16.30;;
11037;SDS011;5572;49.540;11.932;2022-11-20T06:10:55;28.93;;;15.43;;
11037;SDS011;5572;49.540;11.932;2022-11-20T06:13:22;20.03;;;12.07;;
11037;SDS011;5572;49.540;11.932;2022-11-20T06:15:49;27.70;;;14.83;;
11037;SDS011;5572;49.540;11.932;2022-11-20T06:18:16;42.57;;;20.33;;
11037;SDS011;5572;49.540;11.932;2022-11-20T06:20:43;42.37;;;21.67;;
11037;SDS011;5572;49.540;11.932;2022-11-20T06:23:11;52.40;;;24.90;;
11037;SDS011;5572;49.540;11.932;2022-11-20T06:25:38;32.33;;;18.20;;
11037;SDS011;5572;49.540;11.932;2022-11-20T06:28:05;37.20;;;17.87;;
11037;SDS011;5572;49.540;11.932;2022-11-20T06:30:32;30.67;;;17.87;;
11037;SDS011;5572;49.540;11.932;2022-11-20T06:32:59;32.73;;;17.47;;
11037;SDS011;5572;49.540;11.932;2022-11-20T06:35:25;34.33;;;17.83;;
11037;SDS011;5572;49.540;11.932;2022-11-20T06:37:52;37.53;;;18.40;;
11037;SDS011;5572;49.540;11.932;2022-11-20T06:40:20;37.00;;;17.90;;
11037;SDS011;5572;49.540;11.932;2022-11-20T06:42:46;28.17;;;16.53;;
11037;SDS011;5572;49.540;11.932;2022-11-20T06:45:13;20.57;;;12.23;;
11037;SDS011;5572;49.540;11.932;2022-11-20T06:47:40;33.23;;;17.70;;
11037;SDS011;5572;49.540;11.932;2022-11-20T06:50:07;24.97;;;13.03;;
11037;SDS011;5572;49.540;11.932;2022-11-20T06:52:34;32.07;;;16.73;;
11037;SDS011;5572;49.540;11.932;2022-11-20T06:55:00;31.80;;;16.53;;
11037;SDS011;5572;49.540;11.932;2022-11-20T06:57:29;32.63;;;16.93;;
11037;SDS011;5572;49.540;11.932;2022-11-20T06:59:55;31.13;;;16.43;;
11037;SDS011;5572;49.540;11.932;2022-11-20T07:02:22;30.00;;;17.23;;
11037;SDS011;5572;49.540;11.932;2022-11-20T07:04:48;38.00;;;19.87;;
11037;SDS011;5572;49.540;11.932;2022-11-20T07:07:15;37.57;;;18.43;;
11037;SDS011;5572;49.540;11.932;2022-11-20T07:09:41;36.10;;;19.27;;
11037;SDS011;5572;49.540;11.932;2022-11-20T07:12:08;44.80;;;20.57;;
11037;SDS011;5572;49.540;11.932;2022-11-20T07:14:36;25.30;;;14.73;;
11037;SDS011;5572;49.540;11.932;2022-11-20T07:17:02;24.80;;;14.33;;
11037;SDS011;5572;49.540;11.932;2022-11-20T07:19:29;23.77;;;14.07;;
11037;SDS011;5572;49.540;11.932;2022-11-20T07:21:56;31.70;;;16.07;;
11037;SDS011;5572;49.540;11.932;2022-11-20T07:24:22;38.97;;;20.07;;
11037;SDS011;5572;49.540;11.932;2022-11-20T07:26:49;28.77;;;15.40;;
11037;SDS011;5572;49.540;11.932;2022-11-20T07:29:16;27.80;;;16.17;;
11037;SDS011;5572;49.540;11.932;2022-11-20T07:31:44;37.83;;;20.03;;
11037;SDS011;5572;49.540;11.932;2022-11-20T07:34:10;24.97;;;14.20;;
11037;SDS011;5572;49.540;11.932;2022-11-20T07:36:37;24.27;;;14.33;;
11037;SDS011;5572;49.540;11.932;2022-11-20T07:39:04;34.37;;;16.90;;
11037;SDS011;5572;49.540;11.932;2022-11-20T07:41:30;29.33;;;16.53;;
11037;SDS011;5572;49.540;11.932;2022-11-20T07:43:57;30.03;;;18.17;;
11037;SDS011;5572;49.540;11.932;2022-11-20T07:46:23;29.63;;;15.87;;
11037;SDS011;5572;49.540;11.932;2022-11-20T07:48:51;33.43;;;17.83;;
11037;SDS011;5572;49.540;11.932;2022-11-20T07:51:18;33.10;;;18.80;;
11037;SDS011;5572;49.540;11.932;2022-11-20T07:53:45;38.90;;;21.00;;
11037;SDS011;5572;49.540;11.932;2022-11-20T07:56:11;66.17;;;31.43;;
11037;SDS011;5572;49.540;11.932;2022-11-20T07:58:39;52.97;;;26.70;;
11037;SDS011;5572;49.540;11.932;2022-11-20T08:01:06;32.63;;;17.87;;
11037;SDS011;5572;49.540;11.932;2022-11-20T08:03:33;42.77;;;23.13;;
11037;SDS011;5572;49.540;11.932;2022-11-20T08:06:04;32.37;;;17.17;;
11037;SDS011;5572;49.540;11.932;2022-11-20T08:08:31;31.77;;;17.57;;
11037;SDS011;5572;49.540;11.932;2022-11-20T08:10:57;28.33;;;17.27;;
11037;SDS011;5572;49.540;11.932;2022-11-20T08:13:46;46.83;;;23.00;;
11037;SDS011;5572;49.540;11.932;2022-11-20T08:16:30;36.37;;;19.60;;
11037;SDS011;5572;49.540;11.932;2022-11-20T08:18:56;43.87;;;21.20;;
11037;SDS011;5572;49.540;11.932;2022-11-20T08:21:24;45.73;;;22.27;;
11037;SDS011;5572;49.540;11.932;2022-11-20T08:23:51;37.70;;;21.37;;
11037;SDS011;5572;49.540;11.932;2022-11-20T08:26:17;34.97;;;19.20;;
11037;SDS011;5572;49.540;11.932;2022-11-20T08:28:44;44.33;;;22.40;;
11037;SDS011;5572;49.540;11.932;2022-11-20T08:31:14;54.03;;;25.27;;
11037;SDS011;5572;49.540;11.932;2022-11-20T08:33:41;36.10;;;19.47;;
11037;SDS011;5572;49.540;11.932;2022-11-20T08:36:08;37.07;;;20.33;;
11037;SDS011;5572;49.540;11.932;2022-11-20T08:38:39;39.20;;;20.63;;
11037;SDS011;5572;49.540;11.932;2022-11-20T08:41:06;60.20;;;27.80;;
11037;SDS011;5572;49.540;11.932;2022-11-20T08:43:52;38.43;;;20.13;;
11037;SDS011;5572;49.540;11.932;2022-11-20T08:46:21;39.53;;;20.77;;
11037;SDS011;5572;49.540;11.932;2022-11-20T08:48:48;33.30;;;18.23;;
11037;SDS011;5572;49.540;11.932;2022-11-20T08:51:15;35.87;;;18.50;;
11037;SDS011;5572;49.540;11.932;2022-11-20T08:53:43;36.30;;;18.60;;
11037;SDS011;5572;49.540;11.932;2022-11-20T08:56:10;29.90;;;17.80;;
11037;SDS011;5572;49.540;11.932;2022-11-20T08:58:37;30.67;;;16.30;;
11037;SDS011;5572;49.540;11.932;2022-11-20T09:01:04;28.37;;;16.70;;
11037;SDS011;5572;49.540;11.932;2022-11-20T09:03:30;58.00;;;29.87;;
11037;SDS011;5572;49.540;11.932;2022-11-20T09:05:58;30.53;;;17.60;;
11037;SDS011;5572;49.540;11.932;2022-11-20T09:08:25;44.27;;;20.97;;
11037;SDS011;5572;49.540;11.932;2022-11-20T09:10:54;49.80;;;20.73;;
11037;SDS011;5572;49.540;11.932;2022-11-20T09:13:22;47.13;;;23.43;;
11037;SDS011;5572;49.540;11.932;2022-11-20T09:15:52;32.10;;;17.90;;
11037;SDS011;5572;49.540;11.932;2022-11-20T09:18:20;42.47;;;20.70;;
11037;SDS011;5572;49.540;11.932;2022-11-20T09:20:46;44.33;;;24.43;;
11037;SDS011;5572;49.540;11.932;2022-11-20T09:23:13;32.63;;;18.70;;
11037;SDS011;5572;49.540;11.932;2022-11-20T09:25:39;55.50;;;26.67;;
11037;SDS011;5572;49.540;11.932;2022-11-20T09:28:07;49.13;;;26.53;;
11037;SDS011;5572;49.540;11.932;2022-11-20T09:30:34;54.30;;;25.63;;
11037;SDS011;5572;49.540;11.932;2022-11-20T09:33:03;112.80;;;48.30;;
11037;SDS011;5572;49.540;11.932;2022-11-20T09:35:31;55.83;;;27.80;;
11037;SDS011;5572;49.540;11.932;2022-11-20T09:37:57;37.83;;;20.70;;
11037;SDS011;5572;49.540;11.932;2022-11-20T09:40:25;38.90;;;20.10;;
11037;SDS011;5572;49.540;11.932;2022-11-20T09:42:55;36.87;;;21.43;;
11037;SDS011;5572;49.540;11.932;2022-11-20T09:45:33;32.67;;;18.10;;
11037;SDS011;5572;49.540;11.932;2022-11-20T09:48:14;57.50;;;26.37;;
11037;SDS011;5572;49.540;11.932;2022-11-20T09:50:52;35.93;;;20.87;;
11037;SDS011;5572;49.540;11.932;2022-11-20T09:53:24;37.77;;;19.47;;
11037;SDS011;5572;49.540;11.932;2022-11-20T09:56:00;31.87;;;18.43;;
11037;SDS011;5572;49.540;11.932;2022-11-20T09:58:29;36.93;;;19.97;;
11037;SDS011;5572;49.540;11.932;2022-11-20T10:01:03;40.27;;;21.07;;
11037;SDS011;5572;49.540;11.932;2022-11-20T10:03:37;31.73;;;17.13;;
11037;SDS011;5572;49.540;11.932;2022-11-20T10:06:12;31.07;;;17.37;;
11037;SDS011;5572;49.540;11.932;2022-11-20T10:08:44;29.30;;;17.37;;
11037;SDS011;5572;49.540;11.932;2022-11-20T10:11:18;28.20;;;16.33;;
11037;SDS011;5572;49.540;11.932;2022-11-20T10:13:52;28.00;;;16.07;;
11037;SDS011;5572;49.540;11.932;2022-11-20T10:16:32;30.80;;;16.50;;
11037;SDS011;5572;49.540;11.932;2022-11-20T10:19:11;31.30;;;16.30;;
11037;SDS011;5572;49.540;11.932;2022-11-20T10:21:53;30.30;;;16.37;;
11037;SDS011;5572;49.540;11.932;2022-11-20T10:24:30;29.70;;;16.47;;
11037;SDS011;5572;49.540;11.932;2022-11-20T10:27:17;28.07;;;15.23;;
11037;SDS011;5572;49.540;11.932;2022-11-20T10:29:59;23.57;;;14.10;;
11037;SDS011;5572;49.540;11.932;2022-11-20T10:32:30;24.40;;;14.47;;
11037;SDS011;5572;49.540;11.932;2022-11-20T10:35:01;25.67;;;14.63;;
11037;SDS011;5572;49.540;11.932;2022-11-20T10:37:34;33.60;;;17.83;;
11037;SDS011;5572;49.540;11.932;2022-11-20T10:40:04;27.03;;;16.07;;
11037;SDS011;5572;49.540;11.932;2022-11-20T10:42:44;26.83;;;15.07;;
11037;SDS011;5572;49.540;11.932;2022-11-20T10:45:15;27.40;;;15.70;;
11037;SDS011;5572;49.540;11.932;2022-11-20T10:47:49;26.90;;;14.83;;
11037;SDS011;5572;49.540;11.932;2022-11-20T10:50:18;25.53;;;14.77;;
11037;SDS011;5572;49.540;11.932;2022-11-20T10:52:48;22.00;;;13.23;;
11037;SDS011;5572;49.540;11.932;2022-11-20T10:55:25;50.80;;;21.90;;
11037;SDS011;5572;49.540;11.932;2022-11-20T10:58:00;24.30;;;13.70;;
11037;SDS011;5572;49.540;11.932;2022-11-20T11:00:36;20.43;;;12.20;;
11037;SDS011;5572;49.540;11.932;2022-11-20T11:03:07;20.83;;;12.17;;
11037;SDS011;5572;49.540;11.932;2022-11-20T11:05:48;24.47;;;12.67;;
11037;SDS011;5572;49.540;11.932;2022-11-20T11:08:20;18.37;;;11.43;;
11037;SDS011;5572;49.540;11.932;2022-11-20T11:10:48;20.10;;;11.50;;
11037;SDS011;5572;49.540;11.932;2022-11-20T11:13:21;19.40;;;11.37;;
11037;SDS011;5572;49.540;11.932;2022-11-20T11:15:48;15.40;;;10.00;;
11037;SDS011;5572;49.540;11.932;2022-11-20T11:18:24;26.47;;;13.47;;
11037;SDS011;5572;49.540;11.932;2022-11-20T11:20:52;17.43;;;9.77;;
11037;SDS011;5572;49.540;11.932;2022-11-20T11:23:34;17.83;;;10.03;;
11037;SDS011;5572;49.540;11.932;2022-11-20T11:26:02;16.43;;;9.90;;
11037;SDS011;5572;49.540;11.932;2022-11-20T11:28:31;15.97;;;9.70;;
11037;SDS011;5572;49.540;11.932;2022-11-20T11:30:58;17.17;;;9.87;;
11037;SDS011;5572;49.540;11.932;2022-11-20T11:33:26;17.27;;;10.13;;
11037;SDS011;5572;49.540;11.932;2022-11-20T11:35:55;13.40;;;8.93;;
11037;SDS011;5572;49.540;11.932;2022-11-20T11:38:27;14.20;;;8.50;;
11037;SDS011;5572;49.540;11.932;2022-11-20T11:40:57;12.70;;;8.50;;
11037;SDS011;5572;49.540;11.932;2022-11-20T11:43:24;18.60;;;9.43;;
11037;SDS011;5572;49.540;11.932;2022-11-20T11:46:27;13.70;;;8.23;;
11037;SDS011;5572;49.540;11.932;2022-11-20T11:48:59;12.67;;;8.07;;
11037;SDS011;5572;49.540;11.932;2022-11-20T11:51:32;15.97;;;10.00;;
11037;SDS011;5572;49.540;11.932;2022-11-20T11:54:03;16.87;;;11.20;;
11037;SDS011;5572;49.540;11.932;2022-11-20T11:56:36;15.97;;;9.73;;
11037;SDS011;5572;49.540;11.932;2022-11-20T11:59:04;15.30;;;8.87;;
11037;SDS011;5572;49.540;11.932;2022-11-20T12:01:41;34.80;;;14.73;;
11037;SDS011;5572;49.540;11.932;2022-11-20T12:04:16;19.80;;;10.27;;
11037;SDS011;5572;49.540;11.932;2022-11-20T12:06:51;17.60;;;9.13;;
11037;SDS011;5572;49.540;11.932;2022-11-20T12:09:34;16.23;;;9.33;;
11037;SDS011;5572;49.540;11.932;2022-11-20T12:12:08;15.07;;;9.07;;
11037;SDS011;5572;49.540;11.932;2022-11-20T12:14:40;15.87;;;9.10;;
11037;SDS011;5572;49.540;11.932;2022-11-20T12:17:09;14.03;;;8.47;;
11037;SDS011;5572;49.540;11.932;2022-11-20T12:19:39;19.27;;;11.80;;
11037;SDS011;5572;49.540;11.932;2022-11-20T12:22:09;30.30;;;16.87;;
11037;SDS011;5572;49.540;11.932;2022-11-20T12:24:49;14.27;;;9.67;;
11037;SDS011;5572;49.540;11.932;2022-11-20T12:27:32;13.07;;;7.77;;
11037;SDS011;5572;49.540;11.932;2022-11-20T12:30:10;10.30;;;6.60;;
11037;SDS011;5572;49.540;11.932;2022-11-20T12:32:52;8.20;;;5.33;;
11037;SDS011;5572;49.540;11.932;2022-11-20T12:35:44;6.10;;;5.03;;
11037;SDS011;5572;49.540;11.932;2022-11-20T12:41:37;8.87;;;6.23;;
11037;SDS011;5572;49.540;11.932;2022-11-20T12:44:36;6.73;;;4.80;;
11037;SDS011;5572;49.540;11.932;2022-11-20T12:47:34;8.00;;;5.73;;
11037;SDS011;5572;49.540;11.932;2022-11-20T12:50:15;8.63;;;5.43;;
11037;SDS011;5572;49.540;11.932;2022-11-20T12:52:56;12.53;;;6.57;;
11037;SDS011;5572;49.540;11.932;2022-11-20T12:55:31;8.43;;;5.77;;
11037;SDS011;5572;49.540;11.932;2022-11-20T12:58:04;4.10;;;3.60;;
11037;SDS011;5572;49.540;11.932;2022-11-20T13:00:40;4.40;;;3.40;;
11037;SDS011;5572;49.540;11.932;2022-11-20T13:03:23;5.00;;;3.93;;
11037;SDS011;5572;49.540;11.932;2022-11-20T13:06:00;5.80;;;3.87;;
11037;SDS011;5572;49.540;11.932;2022-11-20T13:08:34;5.03;;;4.23;;
11037;SDS011;5572;49.540;11.932;2022-11-20T13:11:03;4.40;;;3.80;;
11037;SDS011;5572;49.540;11.932;2022-11-20T13:13:41;4.57;;;3.60;;
11037;SDS011;5572;49.540;11.932;2022-11-20T13:16:16;4.47;;;3.93;;
11037;SDS011;5572;49.540;11.932;2022-11-20T13:18:49;3.20;;;2.90;;
11037;SDS011;5572;49.540;11.932;2022-11-20T13:21:17;3.77;;;2.93;;
11037;SDS011;5572;49.540;11.932;2022-11-20T13:23:46;2.73;;;2.53;;
11037;SDS011;5572;49.540;11.932;2022-11-20T13:26:17;2.87;;;2.63;;
11037;SDS011;5572;49.540;11.932;2022-11-20T13:28:46;3.73;;;3.03;;
11037;SDS011;5572;49.540;11.932;2022-11-20T13:31:28;2.80;;;2.60;;
11037;SDS011;5572;49.540;11.932;2022-11-20T13:33:57;6.73;;;3.77;;
11037;SDS011;5572;49.540;11.932;2022-11-20T13:36:26;7.83;;;5.07;;
11037;SDS011;5572;49.540;11.932;2022-11-20T13:38:56;6.83;;;4.57;;
11037;SDS011;5572;49.540;11.932;2022-11-20T13:41:24;5.63;;;3.80;;
11037;SDS011;5572;49.540;11.932;2022-11-20T13:43:58;3.87;;;3.57;;
11037;SDS011;5572;49.540;11.932;2022-11-20T13:46:35;9.53;;;5.67;;
11037;SDS011;5572;49.540;11.932;2022-11-20T13:49:09;5.67;;;4.37;;
11037;SDS011;5572;49.540;11.932;2022-11-20T13:51:43;33.23;;;16.50;;
11037;SDS011;5572;49.540;11.932;2022-11-20T13:54:36;18.60;;;10.73;;
11037;SDS011;5572;49.540;11.932;2022-11-20T14:00:25;7.63;;;5.50;;
11037;SDS011;5572;49.540;11.932;2022-11-20T14:02:58;11.87;;;7.30;;
11037;SDS011;5572;49.540;11.932;2022-11-20T14:05:34;12.43;;;7.60;;
11037;SDS011;5572;49.540;11.932;2022-11-20T14:08:02;7.83;;;6.23;;
11037;SDS011;5572;49.540;11.932;2022-11-20T14:10:32;7.10;;;5.40;;
11037;SDS011;5572;49.540;11.932;2022-11-20T14:13:09;10.57;;;7.47;;
11037;SDS011;5572;49.540;11.932;2022-11-20T14:15:36;9.23;;;6.63;;
11037;SDS011;5572;49.540;11.932;2022-11-20T14:18:11;16.57;;;11.37;;
11037;SDS011;5572;49.540;11.932;2022-11-20T14:20:39;11.73;;;7.63;;
11037;SDS011;5572;49.540;11.932;2022-11-20T14:23:08;11.67;;;8.73;;
11037;SDS011;5572;49.540;11.932;2022-11-20T14:25:37;9.20;;;7.83;;
11037;SDS011;5572;49.540;11.932;2022-11-20T14:28:10;11.33;;;7.77;;
11037;SDS011;5572;49.540;11.932;2022-11-20T14:30:46;6.53;;;5.00;;
11037;SDS011;5572;49.540;11.932;2022-11-20T14:33:14;7.83;;;5.50;;
11037;SDS011;5572;49.540;11.932;2022-11-20T14:35:44;4.60;;;4.20;;
11037;SDS011;5572;49.540;11.932;2022-11-20T14:38:12;8.00;;;5.87;;
11037;SDS011;5572;49.540;11.932;2022-11-20T14:40:42;9.43;;;6.00;;
11037;SDS011;5572;49.540;11.932;2022-11-20T14:43:16;10.23;;;7.87;;
11037;SDS011;5572;49.540;11.932;2022-11-20T14:45:54;4.67;;;4.27;;
11037;SDS011;5572;49.540;11.932;2022-11-20T14:48:25;5.30;;;4.30;;
11037;SDS011;5572;49.540;11.932;2022-11-20T14:50:56;6.47;;;5.30;;
11037;SDS011;5572;49.540;11.932;2022-11-20T14:53:23;6.87;;;5.10;;
11037;SDS011;5572;49.540;11.932;2022-11-20T14:55:55;9.67;;;7.03;;
11037;SDS011;5572;49.540;11.932;2022-11-20T14:58:24;7.40;;;5.47;;
11037;SDS011;5572;49.540;11.932;2022-11-20T15:00:54;8.73;;;6.37;;
11037;SDS011;5572;49.540;11.932;2022-11-20T15:03:22;8.17;;;5.77;;
11037;SDS011;5572;49.540;11.932;2022-11-20T15:05:49;7.43;;;6.00;;